3 – eServices

Baggage tracing
Cargo tracing
Weather
  • METAR

    EFMA 170420Z AUTO 19018KT 9999 BKN034 08/05 Q1009

    EFTU 170420Z AUTO 14009KT 8000 OVC003 06/05 Q1012

    EFHK 170420Z 13011KT 3000 -DZRA BKN003 05/05 Q1015 TEMPO 2000

    ESSA 170420Z 17014KT 9999 BKN014 07/05 Q1007 R01L/29//95 R08/29//95 R01R/29//95 TEMPO BKN018

    ESSB 170420Z AUTO 18009KT 150V210 9999 OVC012/// 07/06 Q1008

  • TAF n/a

Flightradar24